Abrela — EAVW — position and weather

sailwx.info

Track history (hours):
 
Tides and Currents Weather Stations Pressure Air Temp Water Temp Dewpoint Dewpoint Depression Visibility Wind Speed Wind Dir Waves Ship Positions

Abrela

Last reported at 2016-Nov-18 01:33 UTC. Time now 2016-Dec-09 13:40 UTC.
Position N 43°41' W 007°36'.
Warning: this ship's position is 21 days out of date.

Length 30 m.

Type: Ship. MMSI: 224204490.

Date/timePositionNaut miles runAvg speedWind from/ knotsBaromVisibWave heightAir tempDewpointWater temp
2016-Nov-18 01:33N 43°41' W 007°36'7 7.4
2016-Nov-18 00:33N 43°46' W 007°28'6 0.2
2016-Nov-16 08:32N 43°46' W 007°20'4 0.2
2016-Nov-15 05:30N 43°49' W 007°23'4 1.3
2016-Nov-15 02:32N 43°49' W 007°18'5 0.5
2016-Nov-14 16:28N 43°52' W 007°23'1 0.6
2016-Nov-14 15:26N 43°52' W 007°23'9 0.6
2016-Nov-13 23:33N 43°45' W 007°31'5 5.3
2016-Nov-13 22:33N 43°41' W 007°36'0 0.0
2016-Nov-13 19:33N 43°41' W 007°36'0 0.0
2016-Nov-13 18:33N 43°41' W 007°36'0 0.0
2016-Nov-13 17:34N 43°41' W 007°36'0 0.0
2016-Nov-13 15:33N 43°41' W 007°36'0 0.0
2016-Nov-13 13:33N 43°41' W 007°36'0 0.0
2016-Nov-13 10:33N 43°41' W 007°36'0 0.0
2016-Nov-13 08:33N 43°41' W 007°36'0 0.0
2016-Nov-13 05:33N 43°41' W 007°36'0 0.0
2016-Nov-13 03:33N 43°41' W 007°36'0 0.0
2016-Nov-12 23:33N 43°41' W 007°36'0 0.0
2016-Nov-12 21:33N 43°41' W 007°36'0 0.0
2016-Nov-12 19:33N 43°41' W 007°36'0 0.0
2016-Nov-12 17:34N 43°41' W 007°36'0 0.0
2016-Nov-12 16:33N 43°41' W 007°36'0 0.0
2016-Nov-12 15:33N 43°41' W 007°36'0 0.0
2016-Nov-12 14:34N 43°41' W 007°36'0 0.0
2016-Nov-12 13:33N 43°41' W 007°36'0 0.0
2016-Nov-12 12:33N 43°41' W 007°36'0 0.0
2016-Nov-12 11:34N 43°41' W 007°36'0 0.0
2016-Nov-12 09:33N 43°41' W 007°36'0 0.0
2016-Nov-12 06:33N 43°41' W 007°36'0 0.0
2016-Nov-12 03:33N 43°41' W 007°36'0 0.0
2016-Nov-12 02:33N 43°41' W 007°36'0 0.0
2016-Nov-12 00:33N 43°41' W 007°36'0 0.0
2016-Nov-11 23:33N 43°41' W 007°36'  
Track history (hours):
 
Tides and Currents Weather Stations Pressure Air Temp Water Temp Dewpoint Dewpoint Depression Visibility Wind Speed Wind Dir Waves Ship Positions

Abrela

Last reported at 2016-Nov-18 01:33 UTC. Time now 2016-Dec-09 13:40 UTC.
Position N 43°41' W 007°36'.
Warning: this ship's position is 21 days out of date.

Length 30 m.

Type: Ship. MMSI: 224204490.

Date/timePositionNaut miles runAvg speedWind from/ knotsBaromVisibWave heightAir tempDewpointWater temp
2016-Nov-18 01:33N 43°41' W 007°36'7 7.4
2016-Nov-18 00:33N 43°46' W 007°28'6 0.2
2016-Nov-16 08:32N 43°46' W 007°20'4 0.2
2016-Nov-15 05:30N 43°49' W 007°23'4 1.3
2016-Nov-15 02:32N 43°49' W 007°18'5 0.5
2016-Nov-14 16:28N 43°52' W 007°23'1 0.6
2016-Nov-14 15:26N 43°52' W 007°23'9 0.6
2016-Nov-13 23:33N 43°45' W 007°31'5 5.3
2016-Nov-13 22:33N 43°41' W 007°36'0 0.0
2016-Nov-13 19:33N 43°41' W 007°36'0 0.0
2016-Nov-13 18:33N 43°41' W 007°36'0 0.0
2016-Nov-13 17:34N 43°41' W 007°36'0 0.0
2016-Nov-13 15:33N 43°41' W 007°36'0 0.0
2016-Nov-13 13:33N 43°41' W 007°36'0 0.0
2016-Nov-13 10:33N 43°41' W 007°36'0 0.0
2016-Nov-13 08:33N 43°41' W 007°36'0 0.0
2016-Nov-13 05:33N 43°41' W 007°36'0 0.0
2016-Nov-13 03:33N 43°41' W 007°36'0 0.0
2016-Nov-12 23:33N 43°41' W 007°36'0 0.0
2016-Nov-12 21:33N 43°41' W 007°36'0 0.0
2016-Nov-12 19:33N 43°41' W 007°36'0 0.0
2016-Nov-12 17:34N 43°41' W 007°36'0 0.0
2016-Nov-12 16:33N 43°41' W 007°36'0 0.0
2016-Nov-12 15:33N 43°41' W 007°36'0 0.0
2016-Nov-12 14:34N 43°41' W 007°36'0 0.0
2016-Nov-12 13:33N 43°41' W 007°36'0 0.0
2016-Nov-12 12:33N 43°41' W 007°36'0 0.0
2016-Nov-12 11:34N 43°41' W 007°36'0 0.0
2016-Nov-12 09:33N 43°41' W 007°36'0 0.0
2016-Nov-12 06:33N 43°41' W 007°36'0 0.0
2016-Nov-12 03:33N 43°41' W 007°36'0 0.0
2016-Nov-12 02:33N 43°41' W 007°36'0 0.0
2016-Nov-12 00:33N 43°41' W 007°36'0 0.0
2016-Nov-11 23:33N 43°41' W 007°36'  

Dump ship's entire track history